METAR AND TAF INFORMATION
METAR FOR UDYZ
UDYZ 211730Z 03011KT 9999 SCT043CB 28/11 Q1010 TEMPO 04016G26KT -TSRA
UDYZ 211700Z 03012KT 9999 SCT043CB 28/11 Q1009 TEMPO 04016G26KT -TSRA
UDYZ 211630Z 02007KT 9999 SCT043CB 29/11 Q1009 TEMPO 04016G26KT -TSRA
UDYZ 211600Z 03011KT 9999 SCT043CB 30/11 Q1009 TEMPO 04016G26KT -TSRA
UDYZ 211530Z 23003KT 9999 FEW043CB 31/10 Q1009 NOSIG
UDYZ 211500Z 20003KT 150V290 9999 FEW043CB 32/07 Q1008 NOSIG
UDYZ 211430Z 20003KT 160V240 9999 FEW043TCU 33/08 Q1008 NOSIG

TAF UDYZ 211700Z 2118/2218 04006KT 9999 FEW040
TEMPO 2118/2124 VRB16G26KT -TSRA SCT040CB

 AIRPORT MAP

 RUNWAY INFORMATION
Runway 09 Runway length 12629 ft Runway width 184 ft
Runway elevation 2800 ft Runway displaced threshold 0 ft Runway heading 90
Runway 27 Runway length 12629 ft Runway width 184 ft
Runway elevation 2838 ft Runway displaced threshold 0 ft Runway heading 270

 AIRPORT FREQUENCIES
Type APP Name YEREVAN AP Frequency 126 MHZ
Type ATIS Name ATIS Frequency 119.5 MHZ
Type GND Name YEREVAN GN Frequency 119 MHZ
Type TWR Name YEREVAN TW Frequency 128 MHZ

 AIRPORT NEAR NAVIGATION AIDS

-